sensor_id;sensor_type;location;lat;lon;timestamp;P1;durP1;ratioP1;P2;durP2;ratioP2
11303;SDS011;5707;49.588;12.148;2023-05-10T00:02:23;2.15;;;1.90;;
11303;SDS011;5707;49.588;12.148;2023-05-10T00:04:49;2.35;;;1.60;;
11303;SDS011;5707;49.588;12.148;2023-05-10T00:07:15;2.20;;;2.00;;
11303;SDS011;5707;49.588;12.148;2023-05-10T00:09:42;2.83;;;1.67;;
11303;SDS011;5707;49.588;12.148;2023-05-10T00:12:08;2.67;;;1.80;;
11303;SDS011;5707;49.588;12.148;2023-05-10T00:14:33;1.98;;;1.88;;
11303;SDS011;5707;49.588;12.148;2023-05-10T00:16:59;1.90;;;1.80;;
11303;SDS011;5707;49.588;12.148;2023-05-10T00:19:25;2.10;;;2.00;;
11303;SDS011;5707;49.588;12.148;2023-05-10T00:21:50;1.73;;;1.63;;
11303;SDS011;5707;49.588;12.148;2023-05-10T00:24:16;4.00;;;1.90;;
11303;SDS011;5707;49.588;12.148;2023-05-10T00:26:42;6.45;;;1.98;;
11303;SDS011;5707;49.588;12.148;2023-05-10T00:29:07;2.92;;;2.20;;
11303;SDS011;5707;49.588;12.148;2023-05-10T00:31:33;2.17;;;1.73;;
11303;SDS011;5707;49.588;12.148;2023-05-10T00:33:58;2.05;;;1.85;;
11303;SDS011;5707;49.588;12.148;2023-05-10T00:36:24;2.80;;;1.65;;
11303;SDS011;5707;49.588;12.148;2023-05-10T00:38:49;3.58;;;1.88;;
11303;SDS011;5707;49.588;12.148;2023-05-10T00:41:15;2.95;;;1.80;;
11303;SDS011;5707;49.588;12.148;2023-05-10T00:43:40;2.40;;;1.80;;
11303;SDS011;5707;49.588;12.148;2023-05-10T00:46:06;2.33;;;2.13;;
11303;SDS011;5707;49.588;12.148;2023-05-10T00:48:32;2.50;;;2.20;;
11303;SDS011;5707;49.588;12.148;2023-05-10T00:50:58;2.30;;;2.13;;
11303;SDS011;5707;49.588;12.148;2023-05-10T00:53:25;2.58;;;2.40;;
11303;SDS011;5707;49.588;12.148;2023-05-10T00:55:51;4.95;;;1.95;;
11303;SDS011;5707;49.588;12.148;2023-05-10T00:58:17;1.92;;;1.83;;
11303;SDS011;5707;49.588;12.148;2023-05-10T01:00:43;2.33;;;2.13;;
11303;SDS011;5707;49.588;12.148;2023-05-10T01:03:11;2.85;;;2.40;;
11303;SDS011;5707;49.588;12.148;2023-05-10T01:05:37;2.40;;;2.20;;
11303;SDS011;5707;49.588;12.148;2023-05-10T01:08:03;1.85;;;1.60;;
11303;SDS011;5707;49.588;12.148;2023-05-10T01:10:29;2.15;;;2.05;;
11303;SDS011;5707;49.588;12.148;2023-05-10T01:12:56;2.20;;;2.10;;
11303;SDS011;5707;49.588;12.148;2023-05-10T01:15:21;2.63;;;1.88;;
11303;SDS011;5707;49.588;12.148;2023-05-10T01:17:47;5.93;;;2.45;;
11303;SDS011;5707;49.588;12.148;2023-05-10T01:20:13;1.88;;;1.77;;
11303;SDS011;5707;49.588;12.148;2023-05-10T01:31:28;2.20;;;2.00;;
11303;SDS011;5707;49.588;12.148;2023-05-10T01:34:01;2.38;;;1.80;;
11303;SDS011;5707;49.588;12.148;2023-05-10T01:36:43;2.08;;;1.70;;
11303;SDS011;5707;49.588;12.148;2023-05-10T01:39:17;2.25;;;2.05;;
11303;SDS011;5707;49.588;12.148;2023-05-10T01:41:54;4.78;;;1.90;;
11303;SDS011;5707;49.588;12.148;2023-05-10T01:44:32;2.28;;;2.13;;
11303;SDS011;5707;49.588;12.148;2023-05-10T01:49:49;2.38;;;2.20;;
11303;SDS011;5707;49.588;12.148;2023-05-10T01:52:18;2.00;;;1.90;;
11303;SDS011;5707;49.588;12.148;2023-05-10T01:54:54;2.65;;;2.08;;
11303;SDS011;5707;49.588;12.148;2023-05-10T01:57:25;2.45;;;2.10;;
11303;SDS011;5707;49.588;12.148;2023-05-10T01:59:56;2.13;;;1.90;;
11303;SDS011;5707;49.588;12.148;2023-05-10T02:02:24;2.97;;;1.80;;
11303;SDS011;5707;49.588;12.148;2023-05-10T02:04:52;2.38;;;2.15;;
11303;SDS011;5707;49.588;12.148;2023-05-10T02:07:19;2.75;;;2.42;;
11303;SDS011;5707;49.588;12.148;2023-05-10T02:09:46;2.42;;;2.22;;
11303;SDS011;5707;49.588;12.148;2023-05-10T02:12:13;2.00;;;1.83;;
11303;SDS011;5707;49.588;12.148;2023-05-10T02:14:40;2.42;;;2.22;;
11303;SDS011;5707;49.588;12.148;2023-05-10T02:17:07;2.35;;;2.25;;
11303;SDS011;5707;49.588;12.148;2023-05-10T02:19:34;2.63;;;2.30;;
11303;SDS011;5707;49.588;12.148;2023-05-10T02:22:03;3.90;;;2.30;;
11303;SDS011;5707;49.588;12.148;2023-05-10T02:24:29;1.92;;;1.83;;
11303;SDS011;5707;49.588;12.148;2023-05-10T02:26:56;2.67;;;2.10;;
11303;SDS011;5707;49.588;12.148;2023-05-10T02:29:24;2.20;;;2.00;;
11303;SDS011;5707;49.588;12.148;2023-05-10T02:31:51;2.15;;;2.00;;
11303;SDS011;5707;49.588;12.148;2023-05-10T02:34:19;2.05;;;1.85;;
11303;SDS011;5707;49.588;12.148;2023-05-10T02:36:46;2.35;;;2.17;;
11303;SDS011;5707;49.588;12.148;2023-05-10T02:39:12;2.17;;;2.00;;
11303;SDS011;5707;49.588;12.148;2023-05-10T02:41:41;1.75;;;1.65;;
11303;SDS011;5707;49.588;12.148;2023-05-10T02:44:08;2.45;;;2.20;;
11303;SDS011;5707;49.588;12.148;2023-05-10T02:46:35;3.30;;;2.25;;
11303;SDS011;5707;49.588;12.148;2023-05-10T02:49:02;1.73;;;1.63;;
11303;SDS011;5707;49.588;12.148;2023-05-10T02:51:30;2.50;;;2.30;;
11303;SDS011;5707;49.588;12.148;2023-05-10T02:53:56;2.13;;;2.03;;
11303;SDS011;5707;49.588;12.148;2023-05-10T02:56:29;2.03;;;1.92;;
11303;SDS011;5707;49.588;12.148;2023-05-10T02:58:59;2.22;;;1.95;;
11303;SDS011;5707;49.588;12.148;2023-05-10T03:01:24;2.50;;;2.30;;
11303;SDS011;5707;49.588;12.148;2023-05-10T03:03:50;3.13;;;1.95;;
11303;SDS011;5707;49.588;12.148;2023-05-10T03:06:15;2.28;;;2.17;;
11303;SDS011;5707;49.588;12.148;2023-05-10T03:08:41;2.20;;;1.90;;
11303;SDS011;5707;49.588;12.148;2023-05-10T03:11:16;4.70;;;2.20;;
11303;SDS011;5707;49.588;12.148;2023-05-10T03:16:45;2.45;;;2.28;;
11303;SDS011;5707;49.588;12.148;2023-05-10T03:19:16;2.47;;;2.38;;
11303;SDS011;5707;49.588;12.148;2023-05-10T03:21:50;2.55;;;2.30;;
11303;SDS011;5707;49.588;12.148;2023-05-10T03:24:19;2.10;;;2.00;;
11303;SDS011;5707;49.588;12.148;2023-05-10T03:26:48;4.18;;;2.55;;
11303;SDS011;5707;49.588;12.148;2023-05-10T03:29:14;2.28;;;2.17;;
11303;SDS011;5707;49.588;12.148;2023-05-10T03:31:40;2.47;;;2.20;;
11303;SDS011;5707;49.588;12.148;2023-05-10T03:34:06;2.63;;;2.42;;
11303;SDS011;5707;49.588;12.148;2023-05-10T03:36:32;2.47;;;2.28;;
11303;SDS011;5707;49.588;12.148;2023-05-10T03:38:58;2.30;;;2.20;;
11303;SDS011;5707;49.588;12.148;2023-05-10T03:41:24;2.55;;;2.10;;
11303;SDS011;5707;49.588;12.148;2023-05-10T03:43:50;2.58;;;2.00;;
11303;SDS011;5707;49.588;12.148;2023-05-10T03:46:16;2.42;;;2.28;;
11303;SDS011;5707;49.588;12.148;2023-05-10T03:48:41;3.92;;;2.47;;
11303;SDS011;5707;49.588;12.148;2023-05-10T03:51:07;5.53;;;2.70;;
11303;SDS011;5707;49.588;12.148;2023-05-10T03:53:33;3.50;;;2.80;;
11303;SDS011;5707;49.588;12.148;2023-05-10T03:55:58;4.78;;;2.40;;
11303;SDS011;5707;49.588;12.148;2023-05-10T03:58:24;2.33;;;2.22;;
11303;SDS011;5707;49.588;12.148;2023-05-10T04:00:50;2.75;;;2.53;;
11303;SDS011;5707;49.588;12.148;2023-05-10T04:03:16;2.65;;;2.30;;
11303;SDS011;5707;49.588;12.148;2023-05-10T04:05:42;2.63;;;2.30;;
11303;SDS011;5707;49.588;12.148;2023-05-10T04:08:08;2.88;;;2.67;;
11303;SDS011;5707;49.588;12.148;2023-05-10T04:10:33;3.25;;;2.42;;
11303;SDS011;5707;49.588;12.148;2023-05-10T04:12:59;3.58;;;2.15;;
11303;SDS011;5707;49.588;12.148;2023-05-10T04:15:24;2.20;;;1.98;;
11303;SDS011;5707;49.588;12.148;2023-05-10T04:17:50;2.47;;;2.28;;
11303;SDS011;5707;49.588;12.148;2023-05-10T04:20:16;2.47;;;2.33;;
11303;SDS011;5707;49.588;12.148;2023-05-10T04:22:41;3.03;;;2.83;;
11303;SDS011;5707;49.588;12.148;2023-05-10T04:25:07;6.47;;;2.67;;
11303;SDS011;5707;49.588;12.148;2023-05-10T04:27:33;2.80;;;2.60;;
11303;SDS011;5707;49.588;12.148;2023-05-10T04:29:59;2.40;;;2.20;;
11303;SDS011;5707;49.588;12.148;2023-05-10T04:32:24;3.30;;;3.10;;
11303;SDS011;5707;49.588;12.148;2023-05-10T04:34:50;2.80;;;2.60;;
11303;SDS011;5707;49.588;12.148;2023-05-10T04:37:17;2.78;;;2.58;;
11303;SDS011;5707;49.588;12.148;2023-05-10T04:39:43;2.78;;;2.58;;
11303;SDS011;5707;49.588;12.148;2023-05-10T04:42:08;3.88;;;3.60;;
11303;SDS011;5707;49.588;12.148;2023-05-10T04:44:34;3.00;;;2.80;;
11303;SDS011;5707;49.588;12.148;2023-05-10T04:47:00;3.83;;;2.85;;
11303;SDS011;5707;49.588;12.148;2023-05-10T04:49:27;3.65;;;2.78;;
11303;SDS011;5707;49.588;12.148;2023-05-10T04:51:53;2.85;;;2.63;;
11303;SDS011;5707;49.588;12.148;2023-05-10T04:54:18;3.00;;;2.70;;
11303;SDS011;5707;49.588;12.148;2023-05-10T04:56:44;3.63;;;3.33;;
11303;SDS011;5707;49.588;12.148;2023-05-10T04:59:09;4.50;;;2.97;;
11303;SDS011;5707;49.588;12.148;2023-05-10T05:01:35;3.13;;;2.92;;
11303;SDS011;5707;49.588;12.148;2023-05-10T05:04:01;3.13;;;2.83;;
11303;SDS011;5707;49.588;12.148;2023-05-10T05:06:26;2.85;;;2.65;;
11303;SDS011;5707;49.588;12.148;2023-05-10T05:08:52;5.00;;;3.13;;
11303;SDS011;5707;49.588;12.148;2023-05-10T05:11:18;8.30;;;3.08;;
11303;SDS011;5707;49.588;12.148;2023-05-10T05:13:43;3.03;;;2.83;;
11303;SDS011;5707;49.588;12.148;2023-05-10T05:16:09;3.35;;;3.15;;
11303;SDS011;5707;49.588;12.148;2023-05-10T05:18:35;3.20;;;2.95;;
11303;SDS011;5707;49.588;12.148;2023-05-10T05:21:01;3.65;;;2.80;;
11303;SDS011;5707;49.588;12.148;2023-05-10T05:23:26;3.70;;;2.85;;
11303;SDS011;5707;49.588;12.148;2023-05-10T05:25:52;3.10;;;2.90;;
11303;SDS011;5707;49.588;12.148;2023-05-10T05:28:21;3.30;;;3.10;;
11303;SDS011;5707;49.588;12.148;2023-05-10T05:30:46;3.22;;;3.00;;
11303;SDS011;5707;49.588;12.148;2023-05-10T05:33:15;3.08;;;2.88;;
11303;SDS011;5707;49.588;12.148;2023-05-10T05:35:41;5.03;;;3.20;;
11303;SDS011;5707;49.588;12.148;2023-05-10T05:38:09;4.35;;;3.50;;
11303;SDS011;5707;49.588;12.148;2023-05-10T05:40:35;3.50;;;3.30;;
11303;SDS011;5707;49.588;12.148;2023-05-10T05:43:00;4.78;;;3.25;;
11303;SDS011;5707;49.588;12.148;2023-05-10T05:45:26;3.78;;;3.58;;
11303;SDS011;5707;49.588;12.148;2023-05-10T05:47:51;3.78;;;3.47;;
11303;SDS011;5707;49.588;12.148;2023-05-10T05:50:17;4.07;;;2.83;;
11303;SDS011;5707;49.588;12.148;2023-05-10T05:52:42;3.50;;;3.20;;
11303;SDS011;5707;49.588;12.148;2023-05-10T05:55:08;3.60;;;3.30;;
11303;SDS011;5707;49.588;12.148;2023-05-10T05:57:33;4.43;;;3.65;;
11303;SDS011;5707;49.588;12.148;2023-05-10T05:59:59;3.60;;;3.30;;
11303;SDS011;5707;49.588;12.148;2023-05-10T06:02:25;3.38;;;3.17;;
11303;SDS011;5707;49.588;12.148;2023-05-10T06:04:50;3.88;;;3.58;;
11303;SDS011;5707;49.588;12.148;2023-05-10T06:07:16;5.75;;;3.35;;
11303;SDS011;5707;49.588;12.148;2023-05-10T06:09:41;3.85;;;3.55;;
11303;SDS011;5707;49.588;12.148;2023-05-10T06:12:07;3.65;;;3.45;;
11303;SDS011;5707;49.588;12.148;2023-05-10T06:14:32;3.35;;;3.15;;
11303;SDS011;5707;49.588;12.148;2023-05-10T06:16:58;3.25;;;3.03;;
11303;SDS011;5707;49.588;12.148;2023-05-10T06:19:24;4.82;;;4.05;;
11303;SDS011;5707;49.588;12.148;2023-05-10T06:21:51;3.83;;;3.30;;
11303;SDS011;5707;49.588;12.148;2023-05-10T06:24:16;4.07;;;3.78;;
11303;SDS011;5707;49.588;12.148;2023-05-10T06:26:42;4.03;;;3.67;;
11303;SDS011;5707;49.588;12.148;2023-05-10T06:29:08;3.50;;;3.30;;
11303;SDS011;5707;49.588;12.148;2023-05-10T06:31:33;3.53;;;3.22;;
11303;SDS011;5707;49.588;12.148;2023-05-10T06:33:59;5.18;;;3.38;;
11303;SDS011;5707;49.588;12.148;2023-05-10T06:36:24;4.28;;;3.95;;
11303;SDS011;5707;49.588;12.148;2023-05-10T06:38:51;4.25;;;3.95;;
11303;SDS011;5707;49.588;12.148;2023-05-10T06:41:16;4.05;;;3.75;;
11303;SDS011;5707;49.588;12.148;2023-05-10T06:43:42;3.85;;;3.65;;
11303;SDS011;5707;49.588;12.148;2023-05-10T06:46:08;4.25;;;3.95;;
11303;SDS011;5707;49.588;12.148;2023-05-10T06:48:33;3.92;;;3.72;;
11303;SDS011;5707;49.588;12.148;2023-05-10T06:50:59;3.72;;;3.42;;
11303;SDS011;5707;49.588;12.148;2023-05-10T06:53:25;4.30;;;4.00;;
11303;SDS011;5707;49.588;12.148;2023-05-10T06:55:50;4.18;;;3.88;;
11303;SDS011;5707;49.588;12.148;2023-05-10T06:58:16;4.22;;;3.92;;
11303;SDS011;5707;49.588;12.148;2023-05-10T07:00:41;6.07;;;5.57;;
11303;SDS011;5707;49.588;12.148;2023-05-10T07:03:09;4.00;;;3.65;;
11303;SDS011;5707;49.588;12.148;2023-05-10T07:05:35;3.92;;;3.70;;
11303;SDS011;5707;49.588;12.148;2023-05-10T07:08:01;4.70;;;4.20;;
11303;SDS011;5707;49.588;12.148;2023-05-10T07:10:26;5.15;;;4.22;;
11303;SDS011;5707;49.588;12.148;2023-05-10T07:12:52;4.15;;;3.72;;
11303;SDS011;5707;49.588;12.148;2023-05-10T07:15:17;4.30;;;4.00;;
11303;SDS011;5707;49.588;12.148;2023-05-10T07:17:43;3.58;;;3.38;;
11303;SDS011;5707;49.588;12.148;2023-05-10T07:20:09;4.53;;;3.58;;
11303;SDS011;5707;49.588;12.148;2023-05-10T07:22:34;4.07;;;3.78;;
11303;SDS011;5707;49.588;12.148;2023-05-10T07:25:00;4.05;;;3.75;;
11303;SDS011;5707;49.588;12.148;2023-05-10T07:27:26;4.80;;;4.50;;
11303;SDS011;5707;49.588;12.148;2023-05-10T07:29:51;5.20;;;4.80;;
11303;SDS011;5707;49.588;12.148;2023-05-10T07:32:17;4.25;;;3.95;;
11303;SDS011;5707;49.588;12.148;2023-05-10T07:34:42;4.85;;;4.47;;
11303;SDS011;5707;49.588;12.148;2023-05-10T07:37:08;4.28;;;3.97;;
11303;SDS011;5707;49.588;12.148;2023-05-10T07:39:33;4.78;;;4.47;;
11303;SDS011;5707;49.588;12.148;2023-05-10T07:41:59;4.65;;;4.35;;
11303;SDS011;5707;49.588;12.148;2023-05-10T07:44:25;4.55;;;4.25;;
11303;SDS011;5707;49.588;12.148;2023-05-10T07:46:50;5.43;;;4.93;;
11303;SDS011;5707;49.588;12.148;2023-05-10T07:49:16;4.60;;;4.20;;
11303;SDS011;5707;49.588;12.148;2023-05-10T07:51:42;4.85;;;4.55;;
11303;SDS011;5707;49.588;12.148;2023-05-10T07:54:07;4.30;;;4.00;;
11303;SDS011;5707;49.588;12.148;2023-05-10T07:56:33;4.60;;;4.30;;
11303;SDS011;5707;49.588;12.148;2023-05-10T07:58:59;4.50;;;4.20;;
11303;SDS011;5707;49.588;12.148;2023-05-10T08:01:25;4.60;;;4.30;;
11303;SDS011;5707;49.588;12.148;2023-05-10T08:03:54;5.25;;;4.88;;
11303;SDS011;5707;49.588;12.148;2023-05-10T08:06:20;5.07;;;4.68;;
11303;SDS011;5707;49.588;12.148;2023-05-10T08:08:46;4.47;;;4.07;;
11303;SDS011;5707;49.588;12.148;2023-05-10T08:11:17;4.85;;;4.55;;
11303;SDS011;5707;49.588;12.148;2023-05-10T08:13:44;4.50;;;4.20;;
11303;SDS011;5707;49.588;12.148;2023-05-10T08:16:10;4.80;;;4.10;;
11303;SDS011;5707;49.588;12.148;2023-05-10T08:18:36;3.80;;;3.50;;
11303;SDS011;5707;49.588;12.148;2023-05-10T08:21:02;4.40;;;4.10;;
11303;SDS011;5707;49.588;12.148;2023-05-10T08:23:28;4.20;;;3.90;;
11303;SDS011;5707;49.588;12.148;2023-05-10T08:25:53;3.70;;;3.50;;
11303;SDS011;5707;49.588;12.148;2023-05-10T08:28:19;3.30;;;3.10;;
11303;SDS011;5707;49.588;12.148;2023-05-10T08:30:44;3.55;;;3.28;;
11303;SDS011;5707;49.588;12.148;2023-05-10T08:33:11;3.15;;;2.95;;
11303;SDS011;5707;49.588;12.148;2023-05-10T08:35:37;3.08;;;2.88;;
11303;SDS011;5707;49.588;12.148;2023-05-10T08:38:02;3.25;;;3.03;;
11303;SDS011;5707;49.588;12.148;2023-05-10T08:40:28;2.88;;;2.67;;
11303;SDS011;5707;49.588;12.148;2023-05-10T08:42:59;4.07;;;3.20;;
11303;SDS011;5707;49.588;12.148;2023-05-10T08:45:36;4.10;;;3.33;;
11303;SDS011;5707;49.588;12.148;2023-05-10T08:48:04;4.35;;;3.13;;
11303;SDS011;5707;49.588;12.148;2023-05-10T08:50:31;4.18;;;3.88;;
11303;SDS011;5707;49.588;12.148;2023-05-10T08:52:57;3.33;;;3.13;;
11303;SDS011;5707;49.588;12.148;2023-05-10T08:55:26;2.97;;;2.78;;
11303;SDS011;5707;49.588;12.148;2023-05-10T08:57:53;4.40;;;3.47;;
11303;SDS011;5707;49.588;12.148;2023-05-10T09:00:18;4.05;;;3.35;;
11303;SDS011;5707;49.588;12.148;2023-05-10T09:02:45;3.45;;;3.03;;
11303;SDS011;5707;49.588;12.148;2023-05-10T09:05:13;3.63;;;3.33;;
11303;SDS011;5707;49.588;12.148;2023-05-10T09:07:40;3.05;;;2.85;;
11303;SDS011;5707;49.588;12.148;2023-05-10T09:10:06;2.95;;;2.65;;
11303;SDS011;5707;49.588;12.148;2023-05-10T09:12:34;4.82;;;3.00;;
11303;SDS011;5707;49.588;12.148;2023-05-10T09:15:00;4.80;;;3.35;;
11303;SDS011;5707;49.588;12.148;2023-05-10T09:17:28;3.25;;;2.97;;
11303;SDS011;5707;49.588;12.148;2023-05-10T09:20:01;3.35;;;3.15;;
11303;SDS011;5707;49.588;12.148;2023-05-10T09:22:28;3.42;;;3.15;;
11303;SDS011;5707;49.588;12.148;2023-05-10T09:27:37;3.03;;;2.75;;
11303;SDS011;5707;49.588;12.148;2023-05-10T09:30:04;3.28;;;2.97;;
11303;SDS011;5707;49.588;12.148;2023-05-10T09:32:38;3.13;;;2.83;;
11303;SDS011;5707;49.588;12.148;2023-05-10T09:35:08;2.90;;;2.70;;
11303;SDS011;5707;49.588;12.148;2023-05-10T09:37:45;2.65;;;2.45;;
11303;SDS011;5707;49.588;12.148;2023-05-10T09:40:19;2.70;;;2.50;;
11303;SDS011;5707;49.588;12.148;2023-05-10T09:45:35;2.25;;;2.05;;
11303;SDS011;5707;49.588;12.148;2023-05-10T09:48:02;1.85;;;1.75;;
11303;SDS011;5707;49.588;12.148;2023-05-10T09:50:31;1.70;;;1.60;;
11303;SDS011;5707;49.588;12.148;2023-05-10T09:52:57;1.98;;;1.40;;
11303;SDS011;5707;49.588;12.148;2023-05-10T09:55:25;1.50;;;1.40;;
11303;SDS011;5707;49.588;12.148;2023-05-10T09:58:03;0.50;;;0.50;;
11303;SDS011;5707;49.588;12.148;2023-05-10T10:00:49;0.80;;;0.63;;
11303;SDS011;5707;49.588;12.148;2023-05-10T10:03:20;0.82;;;0.60;;
11303;SDS011;5707;49.588;12.148;2023-05-10T10:05:46;0.40;;;0.40;;
11303;SDS011;5707;49.588;12.148;2023-05-10T10:08:13;0.47;;;0.47;;
11303;SDS011;5707;49.588;12.148;2023-05-10T10:10:39;1.08;;;0.40;;
11303;SDS011;5707;49.588;12.148;2023-05-10T10:13:06;0.38;;;0.38;;
11303;SDS011;5707;49.588;12.148;2023-05-10T10:15:32;0.65;;;0.60;;
11303;SDS011;5707;49.588;12.148;2023-05-10T10:17:59;0.35;;;0.35;;
11303;SDS011;5707;49.588;12.148;2023-05-10T10:20:25;0.47;;;0.45;;
11303;SDS011;5707;49.588;12.148;2023-05-10T10:22:53;0.98;;;0.40;;
11303;SDS011;5707;49.588;12.148;2023-05-10T10:25:19;0.60;;;0.60;;
11303;SDS011;5707;49.588;12.148;2023-05-10T10:27:56;0.55;;;0.55;;
11303;SDS011;5707;49.588;12.148;2023-05-10T10:30:40;0.40;;;0.40;;
11303;SDS011;5707;49.588;12.148;2023-05-10T10:35:52;0.60;;;0.52;;
11303;SDS011;5707;49.588;12.148;2023-05-10T10:38:19;0.90;;;0.68;;
11303;SDS011;5707;49.588;12.148;2023-05-10T10:40:45;0.40;;;0.40;;
11303;SDS011;5707;49.588;12.148;2023-05-10T10:46:15;0.50;;;0.50;;
11303;SDS011;5707;49.588;12.148;2023-05-10T10:48:49;1.38;;;0.88;;
11303;SDS011;5707;49.588;12.148;2023-05-10T10:51:32;0.50;;;0.50;;
11303;SDS011;5707;49.588;12.148;2023-05-10T10:54:08;0.52;;;0.50;;
11303;SDS011;5707;49.588;12.148;2023-05-10T10:56:35;0.50;;;0.50;;
11303;SDS011;5707;49.588;12.148;2023-05-10T10:59:00;1.42;;;1.05;;
11303;SDS011;5707;49.588;12.148;2023-05-10T11:01:26;0.60;;;0.60;;
11303;SDS011;5707;49.588;12.148;2023-05-10T11:06:33;0.88;;;0.70;;
11303;SDS011;5707;49.588;12.148;2023-05-10T11:09:04;0.40;;;0.40;;
11303;SDS011;5707;49.588;12.148;2023-05-10T11:11:32;0.50;;;0.50;;
11303;SDS011;5707;49.588;12.148;2023-05-10T11:14:02;0.73;;;0.70;;
11303;SDS011;5707;49.588;12.148;2023-05-10T11:16:40;0.63;;;0.50;;
11303;SDS011;5707;49.588;12.148;2023-05-10T11:19:08;0.38;;;0.38;;
11303;SDS011;5707;49.588;12.148;2023-05-10T11:21:48;1.00;;;0.57;;
11303;SDS011;5707;49.588;12.148;2023-05-10T11:24:38;0.50;;;0.50;;
11303;SDS011;5707;49.588;12.148;2023-05-10T11:27:03;0.60;;;0.60;;
11303;SDS011;5707;49.588;12.148;2023-05-10T11:29:29;0.30;;;0.30;;
11303;SDS011;5707;49.588;12.148;2023-05-10T11:31:56;0.50;;;0.50;;
11303;SDS011;5707;49.588;12.148;2023-05-10T11:34:30;0.50;;;0.50;;
11303;SDS011;5707;49.588;12.148;2023-05-10T11:36:59;0.50;;;0.50;;
11303;SDS011;5707;49.588;12.148;2023-05-10T11:39:28;0.80;;;0.60;;
11303;SDS011;5707;49.588;12.148;2023-05-10T11:41:55;0.93;;;0.93;;
11303;SDS011;5707;49.588;12.148;2023-05-10T11:44:22;0.90;;;0.90;;
11303;SDS011;5707;49.588;12.148;2023-05-10T11:46:48;1.48;;;0.70;;
11303;SDS011;5707;49.588;12.148;2023-05-10T11:49:14;0.43;;;0.43;;
11303;SDS011;5707;49.588;12.148;2023-05-10T11:51:39;0.60;;;0.60;;
11303;SDS011;5707;49.588;12.148;2023-05-10T11:54:07;1.50;;;1.13;;
11303;SDS011;5707;49.588;12.148;2023-05-10T11:56:34;1.48;;;0.80;;
11303;SDS011;5707;49.588;12.148;2023-05-10T11:59:00;0.70;;;0.70;;
11303;SDS011;5707;49.588;12.148;2023-05-10T12:01:27;0.70;;;0.70;;
11303;SDS011;5707;49.588;12.148;2023-05-10T12:03:54;0.75;;;0.75;;
11303;SDS011;5707;49.588;12.148;2023-05-10T12:06:26;0.80;;;0.80;;
11303;SDS011;5707;49.588;12.148;2023-05-10T12:08:53;1.15;;;0.90;;
11303;SDS011;5707;49.588;12.148;2023-05-10T12:11:19;0.90;;;0.90;;
11303;SDS011;5707;49.588;12.148;2023-05-10T12:13:46;2.17;;;1.13;;
11303;SDS011;5707;49.588;12.148;2023-05-10T12:16:13;1.60;;;1.50;;
11303;SDS011;5707;49.588;12.148;2023-05-10T12:18:39;1.05;;;1.05;;
11303;SDS011;5707;49.588;12.148;2023-05-10T12:21:06;1.38;;;1.30;;
11303;SDS011;5707;49.588;12.148;2023-05-10T12:23:32;1.58;;;1.30;;
11303;SDS011;5707;49.588;12.148;2023-05-10T12:26:03;0.98;;;0.98;;
11303;SDS011;5707;49.588;12.148;2023-05-10T12:28:30;0.90;;;0.90;;
11303;SDS011;5707;49.588;12.148;2023-05-10T12:30:57;1.63;;;1.52;;
11303;SDS011;5707;49.588;12.148;2023-05-10T12:33:24;1.30;;;1.20;;
11303;SDS011;5707;49.588;12.148;2023-05-10T12:35:50;2.15;;;1.92;;
11303;SDS011;5707;49.588;12.148;2023-05-10T12:38:28;1.65;;;1.55;;
11303;SDS011;5707;49.588;12.148;2023-05-10T12:41:04;1.25;;;1.25;;
11303;SDS011;5707;49.588;12.148;2023-05-10T12:43:35;1.58;;;1.30;;
11303;SDS011;5707;49.588;12.148;2023-05-10T12:46:08;1.92;;;1.50;;
11303;SDS011;5707;49.588;12.148;2023-05-10T12:48:38;1.60;;;1.50;;
11303;SDS011;5707;49.588;12.148;2023-05-10T12:51:05;1.40;;;1.25;;
11303;SDS011;5707;49.588;12.148;2023-05-10T12:53:34;1.10;;;1.10;;
11303;SDS011;5707;49.588;12.148;2023-05-10T12:55:59;2.15;;;1.00;;
11303;SDS011;5707;49.588;12.148;2023-05-10T12:58:25;1.60;;;1.50;;
11303;SDS011;5707;49.588;12.148;2023-05-10T13:00:51;2.08;;;1.88;;
11303;SDS011;5707;49.588;12.148;2023-05-10T13:03:17;1.60;;;1.50;;
11303;SDS011;5707;49.588;12.148;2023-05-10T13:05:42;1.40;;;1.30;;
11303;SDS011;5707;49.588;12.148;2023-05-10T13:08:08;1.45;;;1.40;;
11303;SDS011;5707;49.588;12.148;2023-05-10T13:10:33;3.08;;;2.78;;
11303;SDS011;5707;49.588;12.148;2023-05-10T13:12:59;2.92;;;2.63;;
11303;SDS011;5707;49.588;12.148;2023-05-10T13:15:25;2.33;;;2.22;;
11303;SDS011;5707;49.588;12.148;2023-05-10T13:17:51;1.92;;;1.85;;
11303;SDS011;5707;49.588;12.148;2023-05-10T13:20:16;2.10;;;2.00;;
11303;SDS011;5707;49.588;12.148;2023-05-10T13:22:42;1.55;;;1.55;;
11303;SDS011;5707;49.588;12.148;2023-05-10T13:25:09;2.08;;;1.98;;
11303;SDS011;5707;49.588;12.148;2023-05-10T13:27:34;2.50;;;2.30;;
11303;SDS011;5707;49.588;12.148;2023-05-10T13:30:02;3.38;;;1.85;;
11303;SDS011;5707;49.588;12.148;2023-05-10T13:32:28;2.10;;;1.90;;
11303;SDS011;5707;49.588;12.148;2023-05-10T13:34:54;1.88;;;1.77;;
11303;SDS011;5707;49.588;12.148;2023-05-10T13:37:20;5.55;;;2.75;;
11303;SDS011;5707;49.588;12.148;2023-05-10T13:39:46;2.42;;;2.20;;
11303;SDS011;5707;49.588;12.148;2023-05-10T13:42:11;2.10;;;1.92;;
11303;SDS011;5707;49.588;12.148;2023-05-10T13:44:37;1.98;;;1.88;;
11303;SDS011;5707;49.588;12.148;2023-05-10T13:47:03;3.05;;;1.80;;
11303;SDS011;5707;49.588;12.148;2023-05-10T13:49:29;1.30;;;1.30;;
11303;SDS011;5707;49.588;12.148;2023-05-10T13:51:55;4.30;;;1.60;;
11303;SDS011;5707;49.588;12.148;2023-05-10T13:54:20;1.60;;;1.50;;
11303;SDS011;5707;49.588;12.148;2023-05-10T13:56:47;1.23;;;1.13;;
11303;SDS011;5707;49.588;12.148;2023-05-10T13:59:13;1.58;;;1.48;;
11303;SDS011;5707;49.588;12.148;2023-05-10T14:01:40;1.63;;;1.55;;
11303;SDS011;5707;49.588;12.148;2023-05-10T14:04:06;2.13;;;2.03;;
11303;SDS011;5707;49.588;12.148;2023-05-10T14:06:35;2.22;;;1.60;;
11303;SDS011;5707;49.588;12.148;2023-05-10T14:09:01;1.63;;;1.52;;
11303;SDS011;5707;49.588;12.148;2023-05-10T14:11:27;2.47;;;1.50;;
11303;SDS011;5707;49.588;12.148;2023-05-10T14:13:52;1.80;;;1.70;;
11303;SDS011;5707;49.588;12.148;2023-05-10T14:16:18;1.70;;;1.60;;
11303;SDS011;5707;49.588;12.148;2023-05-10T14:18:45;2.00;;;1.90;;
11303;SDS011;5707;49.588;12.148;2023-05-10T14:21:11;2.05;;;1.85;;
11303;SDS011;5707;49.588;12.148;2023-05-10T14:23:36;1.30;;;1.20;;
11303;SDS011;5707;49.588;12.148;2023-05-10T14:26:02;1.40;;;1.30;;
11303;SDS011;5707;49.588;12.148;2023-05-10T14:28:28;1.10;;;1.10;;
11303;SDS011;5707;49.588;12.148;2023-05-10T14:30:53;2.20;;;2.00;;
11303;SDS011;5707;49.588;12.148;2023-05-10T14:33:19;2.00;;;1.70;;
11303;SDS011;5707;49.588;12.148;2023-05-10T14:35:45;1.80;;;1.70;;
11303;SDS011;5707;49.588;12.148;2023-05-10T14:38:11;2.00;;;1.80;;
11303;SDS011;5707;49.588;12.148;2023-05-10T14:40:37;2.30;;;1.70;;
11303;SDS011;5707;49.588;12.148;2023-05-10T14:43:03;2.00;;;1.90;;
11303;SDS011;5707;49.588;12.148;2023-05-10T14:45:28;1.45;;;1.35;;
11303;SDS011;5707;49.588;12.148;2023-05-10T14:47:54;4.43;;;2.10;;
11303;SDS011;5707;49.588;12.148;2023-05-10T14:50:20;1.30;;;1.20;;
11303;SDS011;5707;49.588;12.148;2023-05-10T14:52:45;2.03;;;1.92;;
11303;SDS011;5707;49.588;12.148;2023-05-10T14:55:11;2.97;;;2.78;;
11303;SDS011;5707;49.588;12.148;2023-05-10T14:57:36;2.67;;;2.47;;
11303;SDS011;5707;49.588;12.148;2023-05-10T15:00:03;2.35;;;2.15;;
11303;SDS011;5707;49.588;12.148;2023-05-10T15:02:29;1.52;;;1.42;;
11303;SDS011;5707;49.588;12.148;2023-05-10T15:04:56;1.50;;;1.40;;
11303;SDS011;5707;49.588;12.148;2023-05-10T15:07:22;2.13;;;1.50;;
11303;SDS011;5707;49.588;12.148;2023-05-10T15:09:48;1.63;;;1.40;;
11303;SDS011;5707;49.588;12.148;2023-05-10T15:12:13;1.35;;;1.27;;
11303;SDS011;5707;49.588;12.148;2023-05-10T15:14:39;1.50;;;1.40;;
11303;SDS011;5707;49.588;12.148;2023-05-10T15:17:05;1.20;;;1.10;;